North Ocean City, Maryland
Current Conditions -  °F | °C
As of 3:53 AM on Saturday 22 Nov 2014 (Local Time) from KOXB Reporting Station
Clear Clear  
Wind Chill: 19°   Ceiling: Unl
Heat Index: 19°   Visibility: 10mi
Dew Point: 13°   Wind: 0mph
Humidity: 77%   Direction: NA
Pressure: 30.56"   Gusts: NA
Location:  38.3984°N, 75.0667°W
Report Text: KOXB 220853Z AUTO 00000KT 10SM CLR M07/M11 A3056 RMK AO2 SLP348 T10721106 52002 TSNO
Loading
Personal Weather Stations






























Interactive Weather Map New forecast layout! Learn more

10-Day Weather Forecast

Advertisements
Track Severe Weather on mobile